Princeton, Minnesota
Current Conditions -  °F | °C
As of 5:14 AM on Saturday 20 Dec 2014 (Local Time) from KPNM Reporting Station
Haze Haze  
Wind Chill: 23°   Ceiling: 900
Heat Index: 30°   Visibility: 5mi
Dew Point: 28°   Wind: 7mph
Humidity: 93%   Direction: 140°SE
Pressure: 30.12"   Gusts: NA
Location:  45.56°N, 93.6°W
Report Text: KPNM 201114Z AUTO 14006KT 5SM BR OVC009 M01/M02 A3012 RMK AO2
Loading
Personal Weather Stations






























Interactive Weather Map New forecast layout! Learn more

10-Day Weather Forecast

Advertisements
Track Severe Weather on mobile